Time;durP1;ratioP1;P1;durP2;ratioP2;P2;SDS_P1;SDS_P2;PMS_P1;PMS_P2;Temp;Humidity;BMP_temperature;BMP_pressure;BME280_temperature;BME280_humidity;BME280_pressure;Samples;Min_cycle;Max_cycle;Signal;HPM_P1;HPM_P2
2023/05/13 00:00:22;;;;;;;25.97;15.88;;;;;;;8.71;57.23;101069.09;1729174;83;25486;-49
2023/05/13 00:02:50;;;;;;;25.02;15.65;;;;;;;8.69;57.33;101068.58;1729202;82;25583;-50
2023/05/13 00:05:18;;;;;;;25.60;15.15;;;;;;;8.67;57.11;101072.64;1729166;83;25439;-49
2023/05/13 00:07:45;;;;;;;23.12;14.68;;;;;;;8.64;57.73;101073.20;1729169;83;28286;-49
2023/05/13 00:10:12;;;;;;;26.82;15.48;;;;;;;8.62;57.66;101076.16;1724842;82;25597;-51
2023/05/13 00:12:38;;;;;;;23.75;15.00;;;;;;;8.60;57.48;101070.25;1717237;83;25410;-52
2023/05/13 00:15:07;;;;;;;23.05;14.33;;;;;;;8.58;57.80;101077.27;1717266;83;25461;-52
2023/05/13 00:17:33;;;;;;;22.55;13.85;;;;;;;8.55;57.42;101078.36;1717471;83;25432;-49
2023/05/13 00:20:01;;;;;;;24.82;14.78;;;;;;;8.53;57.99;101073.76;1717245;83;29639;-49
2023/05/13 00:22:27;;;;;;;25.92;14.78;;;;;;;8.49;57.62;101080.25;1717164;83;27350;-51
2023/05/13 00:24:53;;;;;;;21.73;14.70;;;;;;;8.46;57.85;101080.79;1717188;83;25399;-48
2023/05/13 00:27:19;;;;;;;21.93;13.65;;;;;;;8.39;57.38;101085.13;1717224;83;26168;-48
2023/05/13 00:29:47;;;;;;;24.35;13.58;;;;;;;8.35;57.50;101085.94;1717262;83;25449;-48
2023/05/13 00:32:14;;;;;;;22.93;13.75;;;;;;;8.30;57.61;101080.56;1717220;83;27597;-48
2023/05/13 00:34:42;;;;;;;25.37;14.30;;;;;;;8.23;58.12;101076.80;1717134;83;25638;-48
2023/05/13 00:37:09;;;;;;;20.62;14.25;;;;;;;8.18;58.20;101076.81;1717241;83;25645;-48
2023/05/13 00:39:37;;;;;;;24.65;14.23;;;;;;;8.12;58.26;101075.20;1717207;83;25631;-48
2023/05/13 00:42:06;;;;;;;23.18;14.38;;;;;;;8.09;58.45;101073.87;1717371;83;25707;-48
2023/05/13 00:44:32;;;;;;;23.92;14.25;;;;;;;8.06;58.63;101077.66;1717347;83;28215;-48
2023/05/13 00:47:00;;;;;;;25.02;14.18;;;;;;;8.03;59.00;101079.80;1717175;83;25665;-48
2023/05/13 00:49:26;;;;;;;25.12;14.93;;;;;;;7.98;59.20;101081.16;1717230;83;25590;-48
2023/05/13 00:51:55;;;;;;;22.50;14.73;;;;;;;7.96;59.44;101082.52;1717204;83;25550;-48
2023/05/13 00:54:21;;;;;;;23.93;13.93;;;;;;;7.93;59.31;101081.16;1717543;83;25577;-48
2023/05/13 00:56:47;;;;;;;22.62;13.20;;;;;;;7.92;59.23;101084.16;1717238;83;27498;-48
2023/05/13 00:59:14;;;;;;;18.32;13.50;;;;;;;7.92;59.86;101085.50;1717122;83;25444;-48
2023/05/13 01:01:57;;;;;;;26.27;14.40;;;;;;;7.87;59.59;101091.70;1717234;83;29960;-48
2023/05/13 01:04:32;;;;;;;22.32;14.73;;;;;;;7.83;60.04;101087.39;1717278;83;25534;-48
2023/05/13 01:07:06;;;;;;;24.85;14.40;;;;;;;7.82;59.94;101091.70;1717268;83;25564;-48
2023/05/13 01:10:04;;;;;;;23.98;14.68;;;;;;;7.78;60.22;101089.26;1717328;83;28218;-48
2023/05/13 01:12:36;;;;;;;;;;;;;;;7.74;60.31;101089.00;1719743;83;25604;-49
2023/05/13 01:15:10;;;;;;;;;;;;;;;7.71;60.27;101092.77;1719840;82;25646;-49
2023/05/13 01:18:00;;;;;;;18.95;13.28;;;;;;;7.66;60.30;101091.70;1715759;83;25807;-49
2023/05/13 01:20:29;;;;;;;19.17;13.85;;;;;;;7.62;60.37;101097.34;1717321;83;25451;-50
2023/05/13 01:22:57;;;;;;;21.75;14.63;;;;;;;7.59;60.47;101097.08;1717417;83;29995;-49
2023/05/13 01:25:25;;;;;;;21.62;14.30;;;;;;;7.56;60.25;101089.53;1717088;83;25776;-51
2023/05/13 01:27:53;;;;;;;23.38;14.03;;;;;;;7.55;60.25;101090.63;1717242;83;25662;-49
2023/05/13 01:30:22;;;;;;;20.00;12.88;;;;;;;7.51;60.72;101093.05;1717151;83;25559;-49
2023/05/13 01:32:50;;;;;;;21.97;13.80;;;;;;;7.47;60.57;101087.41;1717713;83;25598;-49
2023/05/13 01:35:19;;;;;;;25.40;14.33;;;;;;;7.44;59.91;101089.80;1717344;83;27652;-49
2023/05/13 01:37:49;;;;;;;24.90;14.63;;;;;;;7.41;60.09;101092.50;1717471;83;25600;-49
2023/05/13 01:40:18;;;;;;;21.65;14.30;;;;;;;7.37;60.67;101087.39;1717440;83;25419;-52
2023/05/13 01:42:46;;;;;;;22.93;14.38;;;;;;;7.31;60.94;101091.14;1717432;83;25472;-49
2023/05/13 01:45:14;;;;;;;26.33;15.23;;;;;;;7.24;60.97;101086.56;1717358;83;25483;-49
2023/05/13 01:47:41;;;;;;;27.50;16.05;;;;;;;7.22;60.91;101090.03;1717581;83;27492;-49
2023/05/13 01:50:10;;;;;;;26.48;16.25;;;;;;;7.19;61.42;101090.59;1717322;83;25584;-49
2023/05/13 01:52:36;;;;;;;20.65;14.68;;;;;;;7.13;61.68;101092.45;1717539;83;32357;-49
2023/05/13 01:55:04;;;;;;;28.92;14.95;;;;;;;7.07;61.82;101097.56;1717328;83;25487;-49
2023/05/13 01:57:30;;;;;;;27.75;15.30;;;;;;;7.02;61.75;101100.23;1717363;83;25437;-48
2023/05/13 01:59:56;;;;;;;28.47;15.83;;;;;;;6.99;61.71;101100.77;1717389;83;27536;-51
2023/05/13 02:02:25;;;;;;;24.23;15.70;;;;;;;6.98;62.16;101107.20;1717239;83;25447;-50
2023/05/13 02:04:51;;;;;;;28.65;15.75;;;;;;;6.94;62.29;101100.75;1717369;83;25634;-48
2023/05/13 02:07:17;;;;;;;23.92;15.85;;;;;;;6.91;62.61;101097.52;1717343;83;25576;-48
2023/05/13 02:09:43;;;;;;;27.10;16.90;;;;;;;6.90;62.58;101100.47;1689399;83;25683;-48
2023/05/13 02:12:09;;;;;;;26.50;16.27;;;;;;;6.91;63.08;101102.07;1717255;82;27530;-48
2023/05/13 02:14:37;;;;;;;26.20;16.50;;;;;;;6.89;63.34;101099.64;1717296;83;25477;-48
2023/05/13 02:17:05;;;;;;;24.57;15.70;;;;;;;6.89;62.87;101106.37;1717290;83;25542;-48
2023/05/13 02:19:31;;;;;;;30.62;15.60;;;;;;;6.90;63.23;101105.85;1717279;83;25649;-48
2023/05/13 02:21:57;;;;;;;24.98;14.80;;;;;;;6.92;62.97;101105.05;1717379;83;25550;-47
2023/05/13 02:24:24;;;;;;;26.65;15.55;;;;;;;6.91;63.04;101103.41;1717369;83;27404;-48
2023/05/13 02:26:52;;;;;;;24.52;16.80;;;;;;;6.89;62.80;101109.05;1717216;83;25626;-48
2023/05/13 02:29:19;;;;;;;25.70;16.57;;;;;;;6.86;62.54;101113.64;1717359;83;25496;-48
2023/05/13 02:31:45;;;;;;;24.32;15.70;;;;;;;6.84;62.72;101114.96;1717307;83;25495;-50
2023/05/13 02:34:12;;;;;;;24.23;15.93;;;;;;;6.79;62.80;101125.70;1717397;83;25654;-50
2023/05/13 02:36:38;;;;;;;24.60;15.08;;;;;;;6.75;63.36;101122.73;1717391;83;27424;-49
2023/05/13 02:39:04;;;;;;;28.25;16.25;;;;;;;6.72;63.30;101121.39;1717362;83;32686;-48
2023/05/13 02:41:32;;;;;;;24.77;15.08;;;;;;;6.73;63.46;101123.53;1717411;83;25563;-49
2023/05/13 02:43:58;;;;;;;27.75;15.93;;;;;;;6.75;63.76;101114.67;1717264;83;25593;-48
2023/05/13 02:46:24;;;;;;;22.22;15.70;;;;;;;6.77;63.81;101128.65;1717360;83;25458;-48
2023/05/13 02:48:50;;;;;;;30.70;16.02;;;;;;;6.79;64.00;101120.33;1717338;83;27734;-48
2023/05/13 02:51:16;;;;;;;26.30;16.48;;;;;;;6.82;64.19;101126.52;1717247;83;32809;-47
2023/05/13 02:53:44;;;;;;;26.68;16.20;;;;;;;6.84;64.21;101121.14;1717278;82;25580;-48
2023/05/13 02:56:10;;;;;;;24.35;16.30;;;;;;;6.89;64.63;101112.30;1717259;83;25736;-48
2023/05/13 02:58:37;;;;;;;25.10;16.45;;;;;;;6.94;64.67;101112.85;1717308;83;25608;-48
2023/05/13 03:01:03;;;;;;;25.15;15.70;;;;;;;6.98;65.16;101117.97;1717329;83;27706;-48
2023/05/13 03:03:29;;;;;;;23.65;16.35;;;;;;;7.03;65.13;101117.98;1717190;83;25596;-48
2023/05/13 03:05:55;;;;;;;24.60;15.50;;;;;;;7.11;65.30;101125.54;1717288;83;25565;-49
2023/05/13 03:08:22;;;;;;;25.77;15.65;;;;;;;7.19;65.16;101124.23;1717225;83;25552;-49
2023/05/13 03:10:50;;;;;;;24.65;15.55;;;;;;;7.25;65.15;101114.56;1717236;82;25394;-48
2023/05/13 03:13:16;;;;;;;26.15;16.55;;;;;;;7.33;65.17;101109.72;1717341;83;27495;-49
2023/05/13 03:15:42;;;;;;;24.10;15.90;;;;;;;7.40;65.24;101100.84;1717215;83;25617;-49
2023/05/13 03:18:08;;;;;;;23.55;16.67;;;;;;;7.46;65.54;101096.54;1717267;83;25609;-48
2023/05/13 03:20:35;;;;;;;27.22;16.20;;;;;;;7.53;65.50;101100.31;1717282;83;25417;-48
2023/05/13 03:23:01;;;;;;;23.20;15.98;;;;;;;7.59;65.75;101095.19;1717333;82;25628;-49
2023/05/13 03:25:27;;;;;;;28.15;16.02;;;;;;;7.63;65.38;101094.94;1717289;83;29697;-49
2023/05/13 03:27:55;;;;;;;26.65;16.27;;;;;;;7.69;65.54;101092.23;1717237;83;25571;-48
2023/05/13 03:30:21;;;;;;;28.12;17.20;;;;;;;7.75;65.37;101104.09;1717283;83;25529;-48
2023/05/13 03:32:47;;;;;;;25.60;15.13;;;;;;;7.74;65.01;101105.70;1717281;83;34875;-48
2023/05/13 03:35:14;;;;;;;27.10;16.42;;;;;;;7.75;65.37;101121.59;1717308;83;25466;-48
2023/05/13 03:37:41;;;;;;;23.90;16.65;;;;;;;7.71;65.00;101117.81;1717309;83;27467;-47
2023/05/13 03:40:10;;;;;;;26.48;16.40;;;;;;;7.70;65.12;101115.41;1717176;83;25383;-48
2023/05/13 03:42:38;;;;;;;21.12;15.18;;;;;;;7.70;65.44;101122.94;1717458;83;25414;-47
2023/05/13 03:45:08;;;;;;;25.45;16.02;;;;;;;7.71;65.28;101122.39;1717248;83;25579;-49
2023/05/13 03:47:37;;;;;;;;;;;;;;;7.74;65.72;101117.27;1719905;83;25392;-49
2023/05/13 03:50:07;;;;;;;22.13;15.70;;;;;;;7.78;65.87;101115.67;1717418;82;27482;-49
2023/05/13 03:52:33;;;;;;;;;;;;;;;7.78;65.44;101118.37;1719776;83;25471;-50
2023/05/13 03:54:59;;;;;;;26.35;16.15;;;;;;;7.80;65.66;101120.25;1717252;83;25602;-48
2023/05/13 03:57:25;;;;;;;25.62;16.48;;;;;;;7.83;65.67;101133.70;1717229;83;25487;-48
2023/05/13 03:59:51;;;;;;;22.42;15.10;;;;;;;7.84;65.62;101132.08;1717257;83;25606;-50
2023/05/13 04:02:17;;;;;;;34.67;16.48;;;;;;;7.89;65.92;101135.33;1717255;83;27522;-50
2023/05/13 04:04:45;;;;;;;33.53;16.73;;;;;;;7.93;65.94;101132.89;1717178;83;26278;-50
2023/05/13 04:07:11;;;;;;;35.58;16.00;;;;;;;7.96;65.82;101133.70;1717230;83;25574;-48
2023/05/13 04:09:39;;;;;;;27.55;15.58;;;;;;;8.01;66.09;101127.77;1717201;83;25494;-49
2023/05/13 04:12:07;;;;;;;23.22;16.70;;;;;;;8.09;66.61;101130.47;1725553;82;25514;-48
2023/05/13 04:14:33;;;;;;;28.60;16.10;;;;;;;8.17;66.47;101138.52;1732502;82;27497;-48
2023/05/13 04:17:01;;;;;;;23.73;16.45;;;;;;;8.22;66.34;101136.65;1732445;82;25812;-49
2023/05/13 04:19:27;;;;;;;25.75;14.78;;;;;;;8.33;66.06;101144.72;1732549;82;29988;-49
2023/05/13 04:21:53;;;;;;;23.20;15.72;;;;;;;8.33;66.06;101144.72;1732515;82;26242;-49
2023/05/13 04:24:19;;;;;;;21.17;14.60;;;;;;;8.38;66.34;101146.85;1732563;82;25559;-48
2023/05/13 04:26:46;;;;;;;24.80;16.45;;;;;;;8.46;66.35;101140.66;1732510;82;27496;-50
2023/05/13 04:29:13;;;;;;;22.75;15.32;;;;;;;8.52;66.64;101137.67;1732468;82;25379;-50
2023/05/13 04:31:41;;;;;;;24.35;15.78;;;;;;;8.62;66.73;101136.05;1732545;82;25595;-50
2023/05/13 04:34:07;;;;;;;24.90;16.87;;;;;;;8.75;66.94;101130.03;1732484;82;25593;-51
2023/05/13 04:36:33;;;;;;;25.08;15.72;;;;;;;8.92;67.23;101138.62;1732524;82;25649;-49
2023/05/13 04:38:59;;;;;;;25.65;15.63;;;;;;;9.11;67.33;101144.73;1732553;82;27466;-50
2023/05/13 04:41:25;;;;;;;25.10;15.95;;;;;;;9.31;66.85;101143.80;1732433;82;25568;-49
2023/05/13 04:43:53;;;;;;;21.55;15.78;;;;;;;9.51;66.72;101154.46;1732543;82;25520;-49
2023/05/13 04:46:19;;;;;;;22.65;15.05;;;;;;;9.72;66.85;101152.44;1732547;82;25627;-48
2023/05/13 04:48:47;;;;;;;24.18;15.65;;;;;;;9.91;66.30;101154.45;1732522;82;25453;-51
2023/05/13 04:51:16;;;;;;;24.20;14.07;;;;;;;10.16;66.31;101156.10;1732576;82;27558;-49
2023/05/13 04:53:42;;;;;;;24.27;15.23;;;;;;;10.40;66.40;101155.36;1732396;82;27332;-50
2023/05/13 04:56:08;;;;;;;22.98;15.23;;;;;;;10.68;66.37;101158.33;1732553;82;25403;-52
2023/05/13 04:58:34;;;;;;;29.80;14.15;;;;;;;10.94;65.17;101161.53;1732522;82;26169;-50
2023/05/13 05:01:00;;;;;;;22.95;13.88;;;;;;;11.13;64.49;101164.26;1732589;82;25503;-49
2023/05/13 05:03:26;;;;;;;27.73;14.23;;;;;;;11.32;63.81;101161.56;1732566;82;27549;-49
2023/05/13 05:05:53;;;;;;;24.55;14.98;;;;;;;11.50;63.73;101163.47;1732519;82;25651;-50
2023/05/13 05:08:19;;;;;;;25.90;13.55;;;;;;;11.68;63.37;101159.67;1732679;82;25505;-50
2023/05/13 05:10:45;;;;;;;21.42;13.65;;;;;;;11.86;62.79;101157.48;1732638;82;25596;-49
2023/05/13 05:13:11;;;;;;;21.40;12.73;;;;;;;12.01;61.78;101148.33;1719469;82;25595;-49
2023/05/13 05:15:37;;;;;;;20.70;14.15;;;;;;;12.15;61.41;101155.13;1717345;83;27485;-49
2023/05/13 05:18:05;;;;;;;23.42;13.32;;;;;;;12.30;61.10;101156.21;1717319;83;32828;-50
2023/05/13 05:20:31;;;;;;;21.93;13.18;;;;;;;12.48;60.74;101161.84;1717380;83;25411;-50
2023/05/13 05:22:58;;;;;;;22.37;12.68;;;;;;;12.67;60.42;101157.15;1717441;82;25516;-49
2023/05/13 05:25:25;;;;;;;18.87;12.85;;;;;;;12.89;60.17;101150.20;1717518;83;25451;-49
2023/05/13 05:27:51;;;;;;;24.25;13.28;;;;;;;13.09;59.42;101154.38;1717341;83;27500;-49
2023/05/13 05:30:18;;;;;;;21.27;11.88;;;;;;;13.24;58.98;101160.04;1717363;83;28105;-49
2023/05/13 05:32:44;;;;;;;19.60;12.03;;;;;;;13.40;58.29;101163.23;1717372;83;25719;-49
2023/05/13 05:35:12;;;;;;;22.05;12.35;;;;;;;13.53;58.18;101166.47;1717349;83;25581;-49
2023/05/13 05:37:38;;;;;;;19.30;10.95;;;;;;;13.68;57.63;101173.47;1717380;83;25481;-49
2023/05/13 05:40:07;;;;;;;40.67;36.50;;;;;;;13.88;57.00;101178.98;1717391;83;27518;-50
2023/05/13 05:42:34;;;;;;;83.30;77.03;;;;;;;14.05;56.23;101166.62;1717483;82;25460;-50
2023/05/13 05:45:00;;;;;;;87.45;81.12;;;;;;;14.23;56.06;101162.85;1717386;83;30011;-50
2023/05/13 05:47:26;;;;;;;86.00;79.50;;;;;;;14.49;56.74;101155.36;1717315;83;25562;-52
2023/05/13 05:49:52;;;;;;;86.15;79.10;;;;;;;14.73;55.36;101157.17;1717354;83;25572;-52
2023/05/13 05:52:19;;;;;;;85.42;79.07;;;;;;;14.92;55.38;101154.74;1717399;83;27565;-50
2023/05/13 05:54:47;;;;;;;87.57;80.97;;;;;;;15.18;55.03;101156.70;1717320;83;26241;-50
2023/05/13 05:57:13;;;;;;;85.42;79.27;;;;;;;15.34;54.17;101151.58;1717350;83;25609;-52
2023/05/13 05:59:39;;;;;;;85.35;78.50;;;;;;;15.43;53.75;101150.47;1717307;83;25573;-48
2023/05/13 06:02:06;;;;;;;84.35;78.35;;;;;;;15.59;53.81;101143.16;1717425;83;32357;-48
2023/05/13 06:04:34;;;;;;;86.10;79.77;;;;;;;15.78;53.98;101149.13;1717377;83;27534;-48
2023/05/13 06:07:00;;;;;;;83.95;78.05;;;;;;;15.99;53.37;101148.44;1717283;83;25617;-49
2023/05/13 06:09:26;;;;;;;86.32;80.30;;;;;;;16.16;52.53;101151.11;1717402;83;25406;-53
2023/05/13 06:11:52;;;;;;;84.22;78.22;;;;;;;16.30;51.92;101148.17;1717188;82;27775;-49
2023/05/13 06:14:20;;;;;;;83.35;77.53;;;;;;;16.43;51.20;101157.30;1717436;83;25473;-50
2023/05/13 06:16:46;;;;;;;85.12;79.22;;;;;;;16.56;51.03;101153.52;1717310;83;27528;-50
2023/05/13 06:19:12;;;;;;;83.82;78.17;;;;;;;16.72;50.97;101153.78;1717263;83;25422;-49
2023/05/13 06:21:38;;;;;;;15.65;9.50;;;;;;;16.88;50.30;101153.23;1717319;83;25523;-50
2023/05/13 06:24:07;;;;;;;19.42;10.20;;;;;;;17.06;50.01;101153.91;1717304;83;25554;-51
2023/05/13 06:26:33;;;;;;;16.75;9.18;;;;;;;17.24;49.88;101151.87;1717367;83;25439;-49
2023/05/13 06:28:59;;;;;;;25.37;10.38;;;;;;;17.45;49.68;101151.85;1717351;83;27611;-49
2023/05/13 06:31:25;;;;;;;15.32;8.83;;;;;;;17.66;49.06;101147.17;1717290;83;25757;-49
2023/05/13 06:33:53;;;;;;;14.33;8.93;;;;;;;17.88;48.58;101152.86;1717336;83;25419;-51
2023/05/13 06:36:19;;;;;;;15.03;7.62;;;;;;;18.13;47.61;101147.43;1717220;83;27712;-49
2023/05/13 06:38:45;;;;;;;15.35;8.38;;;;;;;18.39;47.31;101151.80;1717355;83;25587;-50
2023/05/13 06:41:11;;;;;;;12.35;8.55;;;;;;;18.61;46.40;101143.70;1717379;83;27549;-48
2023/05/13 06:43:38;;;;;;;15.53;7.72;;;;;;;18.88;45.97;101158.67;1717297;83;27420;-52
2023/05/13 06:46:04;;;;;;;13.13;7.50;;;;;;;19.17;45.45;101154.06;1717306;83;25518;-50
2023/05/13 06:48:31;;;;;;;11.75;6.97;;;;;;;19.44;44.22;101153.08;1717288;83;25534;-51
2023/05/13 06:50:57;;;;;;;16.70;6.35;;;;;;;19.71;43.65;101146.78;1717376;83;25554;-52
2023/05/13 06:53:23;;;;;;;10.43;5.70;;;;;;;20.04;42.41;101151.23;1717335;83;27495;-50
2023/05/13 06:55:49;;;;;;;15.20;6.20;;;;;;;20.38;41.37;101153.62;1717245;83;25417;-51
2023/05/13 06:58:15;;;;;;;10.05;6.00;;;;;;;20.66;40.21;101154.34;1717350;83;25667;-50
2023/05/13 07:00:45;;;;;;;64.15;31.85;;;;;;;20.97;39.86;101147.77;1717249;83;25495;-50
2023/05/13 07:03:11;;;;;;;11.30;6.80;;;;;;;21.31;39.39;101154.97;1717410;82;25488;-49
2023/05/13 07:05:37;;;;;;;8.23;5.22;;;;;;;21.55;38.16;101148.41;1717264;83;27521;-52
2023/05/13 07:08:07;;;;;;;9.20;5.08;;;;;;;21.81;37.58;101140.27;1717192;82;25668;-51
2023/05/13 07:10:37;;;;;;;11.20;5.03;;;;;;;22.13;36.84;101139.23;1717394;83;25593;-52
2023/05/13 07:13:06;;;;;;;11.28;5.42;;;;;;;22.44;36.43;101140.16;1717202;82;25678;-51
2023/05/13 07:15:32;;;;;;;10.93;4.90;;;;;;;22.78;36.10;101142.45;1717484;83;25497;-54
2023/05/13 07:17:59;;;;;;;6.47;4.78;;;;;;;23.15;34.99;101132.73;1690781;83;29734;-54
2023/05/13 07:20:25;;;;;;;6.72;4.62;;;;;;;23.46;34.75;101139.81;1717272;83;25537;-54
2023/05/13 07:22:53;;;;;;;14.37;4.97;;;;;;;23.77;33.98;101139.16;1717513;83;25567;-51
2023/05/13 07:25:19;;;;;;;8.40;5.33;;;;;;;24.04;33.53;101135.13;1717189;83;25593;-50
2023/05/13 07:27:46;;;;;;;7.62;4.70;;;;;;;24.30;33.29;101135.34;1717270;83;25384;-50
2023/05/13 07:30:14;;;;;;;6.70;4.67;;;;;;;24.54;32.90;101127.84;1717506;82;27516;-51
2023/05/13 07:32:43;;;;;;;8.40;4.37;;;;;;;24.85;32.18;101131.80;1717330;82;25460;-52
2023/05/13 07:35:13;;;;;;;12.23;5.22;;;;;;;25.01;31.51;101136.41;1717244;83;25461;-51
2023/05/13 07:37:40;;;;;;;8.63;4.62;;;;;;;25.19;31.39;101132.95;1717291;83;25648;-51
2023/05/13 07:40:12;;;;;;;7.77;4.80;;;;;;;25.45;31.25;101136.03;1717586;83;25424;-53
2023/05/13 07:42:41;;;;;;;9.25;4.50;;;;;;;25.67;31.03;101132.13;1717382;83;27532;-51
2023/05/13 07:45:11;;;;;;;5.85;4.65;;;;;;;25.93;30.37;101134.34;1717320;83;25497;-52
2023/05/13 07:47:38;;;;;;;7.67;4.08;;;;;;;26.13;30.00;101132.62;1717352;83;25639;-50
2023/05/13 07:50:08;;;;;;;9.25;5.12;;;;;;;26.35;29.67;101124.48;1717190;83;25550;-54
2023/05/13 07:52:35;;;;;;;10.93;4.40;;;;;;;26.58;29.62;101122.68;1717414;83;25431;-50
2023/05/13 07:55:09;;;;;;;6.83;3.47;;;;;;;26.81;29.31;101122.24;1717505;83;27516;-50
2023/05/13 07:57:37;;;;;;;8.88;4.33;;;;;;;27.05;28.92;101111.46;1717228;83;25520;-53
2023/05/13 08:00:08;;;;;;;8.73;3.77;;;;;;;27.36;28.68;101124.24;1717300;83;25565;-49
2023/05/13 08:02:38;;;;;;;7.40;3.77;;;;;;;27.72;28.24;101121.25;1717286;83;25663;-53
2023/05/13 08:05:08;;;;;;;5.87;3.35;;;;;;;27.93;27.77;101122.53;1717305;83;25467;-53
2023/05/13 08:08:11;;;;;;;6.97;3.50;;;;;;;28.17;26.80;101123.34;1717335;83;28194;-50
2023/05/13 08:10:45;;;;;;;4.67;3.33;;;;;;;28.18;24.38;101133.25;1717210;83;27310;-50
2023/05/13 08:13:11;;;;;;;3.67;3.08;;;;;;;27.72;25.25;101117.89;1722637;82;25389;-49
2023/05/13 08:15:38;;;;;;;5.33;3.02;;;;;;;27.88;25.78;101114.59;1729192;82;25545;-52
2023/05/13 08:18:04;;;;;;;6.25;3.47;;;;;;;28.14;25.53;101111.04;1729203;83;25397;-51
2023/05/13 08:20:31;;;;;;;4.85;3.02;;;;;;;28.38;23.99;101115.40;1729262;83;27579;-49
2023/05/13 08:22:57;;;;;;;6.60;3.22;;;;;;;28.49;24.89;101124.44;1729237;82;25553;-50
2023/05/13 08:25:24;;;;;;;4.95;2.98;;;;;;;28.54;24.09;101122.60;1729345;83;25602;-54
2023/05/13 08:27:50;;;;;;;6.83;3.42;;;;;;;28.68;23.86;101110.55;1729376;82;25583;-54
2023/05/13 08:30:17;;;;;;;7.53;3.75;;;;;;;28.91;23.77;101114.05;1729340;82;25420;-54
2023/05/13 08:32:45;;;;;;;9.63;5.80;;;;;;;29.03;23.03;101115.50;1729194;83;27547;-48
2023/05/13 08:35:12;;;;;;;4.10;2.70;;;;;;;29.04;22.47;101112.92;1729453;83;25776;-56
2023/05/13 08:37:38;;;;;;;7.47;2.98;;;;;;;28.82;21.34;101101.25;1728898;83;25683;-66
2023/05/13 08:40:07;;;;;;;8.33;2.62;;;;;;;28.51;22.04;101114.47;1727804;82;25691;-66
2023/05/13 08:42:38;;;;;;;3.72;2.62;;;;;;;28.36;22.48;101108.85;1698140;83;25501;-66
2023/05/13 08:45:08;;;;;;;3.62;2.47;;;;;;;28.21;21.97;101112.36;1729228;83;27469;-67
2023/05/13 08:47:45;;;;;;;4.75;2.70;;;;;;;27.66;21.81;101110.39;1729036;83;25539;-67
2023/05/13 08:50:13;;;;;;;4.83;3.10;;;;;;;27.60;22.91;101104.48;1725724;83;25572;-63
2023/05/13 08:52:39;;;;;;;4.00;2.83;;;;;;;27.94;22.80;101103.84;1694814;83;26112;-63
2023/05/13 08:55:07;;;;;;;5.70;2.67;;;;;;;27.72;22.29;101101.80;1725773;83;25557;-62
2023/05/13 08:57:35;;;;;;;2.98;2.67;;;;;;;27.24;22.21;101102.45;1725946;83;28220;-64
2023/05/13 09:00:04;;;;;;;4.72;2.65;;;;;;;26.76;22.19;101106.61;1725481;83;25386;-64
2023/05/13 09:02:30;;;;;;;5.03;2.80;;;;;;;26.49;22.72;101107.03;1724377;83;25707;-63
2023/05/13 09:05:02;;;;;;;6.20;3.12;;;;;;;26.48;22.70;101099.91;1724281;83;25993;-63
2023/05/13 09:07:31;;;;;;;7.45;3.15;;;;;;;26.27;23.13;101103.48;1725747;83;25562;-63
2023/05/13 09:09:58;;;;;;;3.83;2.77;;;;;;;26.29;22.97;101098.36;1725731;83;27487;-63
2023/05/13 09:12:46;;;;;;;5.15;2.42;;;;;;;26.37;23.15;101098.52;1725573;83;25804;-63
2023/05/13 09:15:24;;;;;;;4.03;2.60;;;;;;;26.78;23.37;101095.32;1725924;83;25555;-63
2023/05/13 09:18:05;;;;;;;4.60;2.67;;;;;;;27.71;23.58;101097.45;1724976;83;25587;-61
2023/05/13 09:20:33;;;;;;;4.08;2.50;;;;;;;28.42;23.00;101101.66;1725701;83;25483;-69
2023/05/13 09:23:07;;;;;;;5.70;2.42;;;;;;;28.88;22.13;101094.81;1725692;83;27464;-64
2023/05/13 09:25:33;;;;;;;4.53;2.62;;;;;;;28.79;21.50;101094.53;1724502;83;25407;-67
2023/05/13 09:28:03;;;;;;;7.25;3.02;;;;;;;28.59;21.40;101089.37;1725677;83;25458;-64
2023/05/13 09:30:37;;;;;;;3.08;2.77;;;;;;;28.46;21.27;101088.48;1725779;83;25637;-66
2023/05/13 09:33:13;;;;;;;3.80;2.60;;;;;;;28.27;21.34;101087.09;1725760;83;25479;-64
2023/05/13 09:35:51;;;;;;;2.90;2.50;;;;;;;28.03;21.27;101081.95;1725750;83;27566;-66
2023/05/13 09:38:27;;;;;;;4.30;2.20;;;;;;;27.65;20.69;101085.18;1725885;83;25625;-64
2023/05/13 09:41:02;;;;;;;3.90;3.47;;;;;;;27.11;20.78;101080.70;1725765;83;25476;-70
2023/05/13 09:43:33;;;;;;;5.65;2.67;;;;;;;26.71;20.85;101063.41;1725641;83;25647;-69
2023/05/13 09:46:08;;;;;;;5.35;2.60;;;;;;;26.26;21.17;101083.91;1725758;83;25641;-70
2023/05/13 09:48:36;;;;;;;6.03;2.67;;;;;;;26.16;21.99;101065.30;1725627;82;27554;-70
2023/05/13 09:51:04;;;;;;;;;;;;;;;26.60;21.94;101070.97;1728165;83;25536;-71
2023/05/13 09:53:30;;;;;;;5.17;3.40;;;;;;;26.82;21.74;101064.78;1725707;83;25568;-71
2023/05/13 09:55:58;;;;;;;2.90;2.55;;;;;;;27.32;22.14;101073.49;1694868;83;25655;-72
2023/05/13 09:58:29;;;;;;;3.52;2.45;;;;;;;27.74;21.50;101068.25;1725836;83;25421;-71
2023/05/13 10:00:57;;;;;;;6.22;2.15;;;;;;;27.74;21.05;101067.47;1725771;83;27563;-64
2023/05/13 10:03:24;;;;;;;9.70;3.58;;;;;;;27.52;21.13;101062.05;1725587;83;25681;-64
2023/05/13 10:05:52;;;;;;;5.55;2.98;;;;;;;27.18;21.35;101060.45;1725686;82;25504;-65
2023/05/13 10:08:19;;;;;;;2.65;2.42;;;;;;;26.86;21.54;101064.16;1725760;81;25782;-64
2023/05/13 10:10:48;;;;;;;7.17;3.20;;;;;;;26.55;21.66;101067.99;1725777;83;25573;-64
2023/05/13 10:13:18;;;;;;;2.90;2.60;;;;;;;26.30;22.58;101058.94;1725602;83;27436;-69
2023/05/13 10:15:54;;;;;;;5.90;3.00;;;;;;;26.69;23.50;101056.09;1725681;83;25967;-70
2023/05/13 10:18:22;;;;;;;3.65;3.00;;;;;;;27.30;23.04;101062.78;1725742;83;25557;-70
2023/05/13 10:20:51;;;;;;;7.33;2.52;;;;;;;27.49;22.42;101053.75;1726026;83;26006;-71
2023/05/13 10:23:21;;;;;;;25.02;21.40;;;;;;;27.33;22.71;101053.64;1725990;83;25220;-57
2023/05/13 10:25:48;;;;;;;49.30;32.73;;;;;;;27.03;22.73;101043.06;1725827;83;27141;-59
2023/05/13 10:28:15;;;;;;;14.25;12.37;;;;;;;26.57;23.02;101047.58;1725733;83;25557;-60
2023/05/13 10:30:43;;;;;;;11.00;3.60;;;;;;;26.08;23.45;101043.14;1725786;81;25596;-59
2023/05/13 10:33:10;;;;;;;16.17;12.28;;;;;;;25.80;23.09;101040.34;1725901;83;25482;-60
2023/05/13 10:35:40;;;;;;;3.40;2.67;;;;;;;25.81;24.08;101037.75;1725691;83;25410;-59
2023/05/13 10:38:27;;;;;;;4.20;2.20;;;;;;;25.60;23.84;101046.85;1694855;83;27455;-59
2023/05/13 10:41:02;;;;;;;6.85;2.72;;;;;;;25.56;23.89;101035.77;1725650;83;25629;-59
2023/05/13 10:43:31;;;;;;;3.62;2.72;;;;;;;25.97;24.00;101031.25;1724290;83;25741;-62
2023/05/13 10:46:07;;;;;;;9.63;4.40;;;;;;;26.38;25.10;101027.23;1725791;83;32907;-60
2023/05/13 10:48:44;;;;;;;3.05;2.55;;;;;;;26.54;23.30;101030.34;1694122;83;25678;-58
2023/05/13 10:51:16;;;;;;;6.67;2.52;;;;;;;26.21;23.18;101035.18;1723957;83;27546;-58
2023/05/13 10:53:52;;;;;;;4.10;2.27;;;;;;;25.75;23.16;101037.36;1693393;83;25758;-59
2023/05/13 10:56:23;;;;;;;5.42;2.40;;;;;;;25.24;23.29;101046.16;1724399;83;25714;-60
2023/05/13 10:59:04;;;;;;;2.52;2.33;;;;;;;24.72;23.66;101046.38;1723802;83;25858;-59
2023/05/13 11:01:42;;;;;;;3.45;2.50;;;;;;;24.28;24.34;101037.60;1724391;83;25674;-59
2023/05/13 11:04:18;;;;;;;4.40;2.90;;;;;;;23.85;24.48;101045.55;1724521;83;27640;-57
2023/05/13 11:06:48;;;;;;;4.10;2.40;;;;;;;23.75;25.26;101037.37;1725424;83;25688;-56
2023/05/13 11:09:28;;;;;;;4.40;2.60;;;;;;;23.75;25.53;101044.28;1725601;83;25635;-56
2023/05/13 11:12:00;;;;;;;5.35;2.50;;;;;;;24.24;24.87;101036.17;1725577;83;25637;-58
2023/05/13 11:14:29;;;;;;;3.62;2.70;;;;;;;24.74;24.83;101028.80;1725245;82;25461;-56
2023/05/13 11:17:05;;;;;;;;;;;;;;;25.09;24.99;101034.25;1728159;83;27514;-58
2023/05/13 11:19:40;;;;;;;4.00;2.50;;;;;;;24.87;23.45;101025.67;1725642;83;25417;-58
2023/05/13 11:22:20;;;;;;;4.00;2.20;;;;;;;24.51;23.96;101026.87;1724884;83;25633;-57
2023/05/13 11:25:04;;;;;;;8.05;2.85;;;;;;;24.17;24.11;101025.67;1725619;83;25578;-58